Terminal Aerodrome Forecast
Issued by NWS

Home | Current Version | Previous Version | Text Only | Print | Product List | Glossary On
Versions: 1 2 3 4 5 6 7 8 9 10 11 12 13 14 15 16 17 18 19
000
FTUS44 KEWX 301100
TAFSSF
TAF
KSSF 301122Z 3012/3112 05004KT 6SM BR BKN009
     FM301500 07004KT P6SM BKN012
     FM301700 09003KT P6SM SCT035
     FM311000 34005KT 4SM -SHRA BR BKN035=

USA.gov is the U.S. government's official web portal to all federal, state and local government web resources and services.